Guiping, China
Current Conditions -  °F | °C
As of 11:00 AM on Monday 22 Dec 2014 (Local Time) from ZGKL Reporting Station
Clear Clear  
Wind Chill: 50°   Ceiling: Unl
Heat Index: 50°   Visibility: 6mi
Dew Point: 21°   Wind: 2mph
Humidity: 32%   Direction: NA
Pressure: 30.39"   Gusts: NA
Location:  23.4°N, 110.08°E
Report Text: ZGKL 220300Z VRB01MPS CAVOK 10/M06 Q1029 NOSIG
Loading
Personal Weather Stations






























Interactive Weather Map New forecast layout! Learn more

10-Day Weather Forecast

Advertisements
Track Severe Weather on mobile